sensor_id;sensor_type;location;lat;lon;timestamp;pressure;altitude;pressure_sealevel;temperature;humidity
39405;BME280;25121;51.090;17.038;2023-03-05T00:00:15;99843.81;;;4.65;51.74
39405;BME280;25121;51.090;17.038;2023-03-05T00:01:38;99849.28;;;4.64;51.83
39405;BME280;25121;51.090;17.038;2023-03-05T00:03:04;99841.16;;;4.65;51.96
39405;BME280;25121;51.090;17.038;2023-03-05T00:04:26;99842.13;;;4.64;52.04
39405;BME280;25121;51.090;17.038;2023-03-05T00:05:48;99834.84;;;4.57;52.19
39405;BME280;25121;51.090;17.038;2023-03-05T00:07:10;99841.28;;;4.64;51.85
39405;BME280;25121;51.090;17.038;2023-03-05T00:08:34;99839.63;;;4.63;52.07
39405;BME280;25121;51.090;17.038;2023-03-05T00:09:58;99814.44;;;4.47;52.28
39405;BME280;25121;51.090;17.038;2023-03-05T00:11:21;99840.59;;;4.62;52.13
39405;BME280;25121;51.090;17.038;2023-03-05T00:12:44;99850.25;;;4.63;52.18
39405;BME280;25121;51.090;17.038;2023-03-05T00:14:06;99837.78;;;4.63;52.13
39405;BME280;25121;51.090;17.038;2023-03-05T00:15:28;99845.78;;;4.63;51.95
39405;BME280;25121;51.090;17.038;2023-03-05T00:16:51;99836.78;;;4.64;51.85
39405;BME280;25121;51.090;17.038;2023-03-05T00:18:13;99812.31;;;4.51;52.02
39405;BME280;25121;51.090;17.038;2023-03-05T00:19:36;99836.66;;;4.66;51.99
39405;BME280;25121;51.090;17.038;2023-03-05T00:20:58;99824.91;;;4.59;51.77
39405;BME280;25121;51.090;17.038;2023-03-05T00:22:20;99821.94;;;4.62;51.61
39405;BME280;25121;51.090;17.038;2023-03-05T00:23:42;99827.00;;;4.65;51.95
39405;BME280;25121;51.090;17.038;2023-03-05T00:25:04;99824.34;;;4.65;52.01
39405;BME280;25121;51.090;17.038;2023-03-05T00:26:27;99827.84;;;4.65;52.00
39405;BME280;25121;51.090;17.038;2023-03-05T00:27:49;99824.34;;;4.65;51.92
39405;BME280;25121;51.090;17.038;2023-03-05T00:29:14;99820.00;;;4.64;52.08
39405;BME280;25121;51.090;17.038;2023-03-05T00:30:37;99817.50;;;4.62;52.13
39405;BME280;25121;51.090;17.038;2023-03-05T00:32:03;99806.28;;;4.59;52.19
39405;BME280;25121;51.090;17.038;2023-03-05T00:33:27;99820.69;;;4.66;52.31
39405;BME280;25121;51.090;17.038;2023-03-05T00:34:50;99808.09;;;4.58;52.33
39405;BME280;25121;51.090;17.038;2023-03-05T00:36:12;99817.19;;;4.65;52.31
39405;BME280;25121;51.090;17.038;2023-03-05T00:37:33;99811.16;;;4.63;52.61
39405;BME280;25121;51.090;17.038;2023-03-05T00:38:56;99805.16;;;4.61;52.63
39405;BME280;25121;51.090;17.038;2023-03-05T00:40:18;99810.03;;;4.66;52.74
39405;BME280;25121;51.090;17.038;2023-03-05T00:41:40;99801.22;;;4.65;52.84
39405;BME280;25121;51.090;17.038;2023-03-05T00:43:03;99789.59;;;4.57;52.56
39405;BME280;25121;51.090;17.038;2023-03-05T00:44:24;99775.19;;;4.49;52.16
39405;BME280;25121;51.090;17.038;2023-03-05T00:45:47;99782.31;;;4.59;51.97
39405;BME280;25121;51.090;17.038;2023-03-05T00:47:08;99803.06;;;4.65;51.93
39405;BME280;25121;51.090;17.038;2023-03-05T00:48:31;99794.91;;;4.66;51.82
39405;BME280;25121;51.090;17.038;2023-03-05T00:49:53;99799.41;;;4.66;51.44
39405;BME280;25121;51.090;17.038;2023-03-05T00:51:15;99799.69;;;4.63;51.86
39405;BME280;25121;51.090;17.038;2023-03-05T00:52:36;99787.34;;;4.62;52.12
39405;BME280;25121;51.090;17.038;2023-03-05T00:53:58;99797.88;;;4.63;52.09
39405;BME280;25121;51.090;17.038;2023-03-05T00:55:21;99799.53;;;4.64;51.93
39405;BME280;25121;51.090;17.038;2023-03-05T00:56:42;99794.38;;;4.63;51.75
39405;BME280;25121;51.090;17.038;2023-03-05T00:58:05;99782.75;;;4.54;52.06
39405;BME280;25121;51.090;17.038;2023-03-05T00:59:26;99790.31;;;4.59;52.12
39405;BME280;25121;51.090;17.038;2023-03-05T01:00:49;99792.69;;;4.62;52.23
39405;BME280;25121;51.090;17.038;2023-03-05T01:02:10;99782.63;;;4.56;52.07
39405;BME280;25121;51.090;17.038;2023-03-05T01:03:34;99793.53;;;4.62;52.06
39405;BME280;25121;51.090;17.038;2023-03-05T01:04:56;99778.69;;;4.60;52.09
39405;BME280;25121;51.090;17.038;2023-03-05T01:06:18;99782.31;;;4.59;51.94
39405;BME280;25121;51.090;17.038;2023-03-05T01:07:40;99786.53;;;4.61;51.80
39405;BME280;25121;51.090;17.038;2023-03-05T01:09:01;99774.50;;;4.57;51.76
39405;BME280;25121;51.090;17.038;2023-03-05T01:10:24;99789.19;;;4.61;51.51
39405;BME280;25121;51.090;17.038;2023-03-05T01:11:47;99785.69;;;4.61;51.46
39405;BME280;25121;51.090;17.038;2023-03-05T01:13:09;99772.38;;;4.61;51.43
39405;BME280;25121;51.090;17.038;2023-03-05T01:14:30;99774.34;;;4.59;51.33
39405;BME280;25121;51.090;17.038;2023-03-05T01:15:52;99783.31;;;4.58;51.37
39405;BME280;25121;51.090;17.038;2023-03-05T01:17:13;99772.69;;;4.58;51.48
39405;BME280;25121;51.090;17.038;2023-03-05T01:18:38;99771.84;;;4.57;51.29
39405;BME280;25121;51.090;17.038;2023-03-05T01:20:00;99762.16;;;4.56;51.34
39405;BME280;25121;51.090;17.038;2023-03-05T01:21:21;99764.97;;;4.54;51.16
39405;BME280;25121;51.090;17.038;2023-03-05T01:22:44;99762.75;;;4.50;50.93
39405;BME280;25121;51.090;17.038;2023-03-05T01:24:06;99771.84;;;4.57;50.93
39405;BME280;25121;51.090;17.038;2023-03-05T01:25:28;99755.59;;;4.50;50.90
39405;BME280;25121;51.090;17.038;2023-03-05T01:26:51;99759.50;;;4.56;50.88
39405;BME280;25121;51.090;17.038;2023-03-05T01:28:19;99762.16;;;4.56;51.11
39405;BME280;25121;51.090;17.038;2023-03-05T01:29:41;99743.84;;;4.53;51.21
39405;BME280;25121;51.090;17.038;2023-03-05T01:31:07;99746.06;;;4.58;51.26
39405;BME280;25121;51.090;17.038;2023-03-05T01:32:29;99752.22;;;4.58;51.30
39405;BME280;25121;51.090;17.038;2023-03-05T01:33:52;99749.69;;;4.57;51.00
39405;BME280;25121;51.090;17.038;2023-03-05T01:35:18;99750.56;;;4.57;51.23
39405;BME280;25121;51.090;17.038;2023-03-05T01:36:40;99750.56;;;4.57;51.04
39405;BME280;25121;51.090;17.038;2023-03-05T01:38:02;99745.38;;;4.56;50.94
39405;BME280;25121;51.090;17.038;2023-03-05T01:39:24;99748.72;;;4.58;50.88
39405;BME280;25121;51.090;17.038;2023-03-05T01:40:46;99748.72;;;4.58;51.00
39405;BME280;25121;51.090;17.038;2023-03-05T01:42:07;99747.19;;;4.55;51.04
39405;BME280;25121;51.090;17.038;2023-03-05T01:43:30;99744.53;;;4.55;51.17
39405;BME280;25121;51.090;17.038;2023-03-05T01:45:03;99744.53;;;4.55;50.94
39405;BME280;25121;51.090;17.038;2023-03-05T01:46:28;99741.31;;;4.51;50.96
39405;BME280;25121;51.090;17.038;2023-03-05T01:47:50;99742.84;;;4.54;51.24
39405;BME280;25121;51.090;17.038;2023-03-05T01:49:18;99726.06;;;4.44;51.42
39405;BME280;25121;51.090;17.038;2023-03-05T01:50:40;99727.16;;;4.51;51.35
39405;BME280;25121;51.090;17.038;2023-03-05T01:52:05;99741.16;;;4.53;51.28
39405;BME280;25121;51.090;17.038;2023-03-05T01:53:29;99735.84;;;4.53;51.49
39405;BME280;25121;51.090;17.038;2023-03-05T01:54:53;99736.97;;;4.50;51.70
39405;BME280;25121;51.090;17.038;2023-03-05T01:56:17;99730.66;;;4.51;51.67
39405;BME280;25121;51.090;17.038;2023-03-05T01:57:42;99727.03;;;4.52;51.75
39405;BME280;25121;51.090;17.038;2023-03-05T01:59:05;99722.56;;;4.43;51.66
39405;BME280;25121;51.090;17.038;2023-03-05T02:00:29;99724.50;;;4.51;51.86
39405;BME280;25121;51.090;17.038;2023-03-05T02:01:55;99730.66;;;4.51;51.83
39405;BME280;25121;51.090;17.038;2023-03-05T02:03:19;99731.66;;;4.50;51.78
39405;BME280;25121;51.090;17.038;2023-03-05T02:04:48;99733.47;;;4.50;51.71
39405;BME280;25121;51.090;17.038;2023-03-05T02:06:12;99719.50;;;4.38;51.73
39405;BME280;25121;51.090;17.038;2023-03-05T02:07:33;99731.38;;;4.44;51.86
39405;BME280;25121;51.090;17.038;2023-03-05T02:08:58;99713.50;;;4.36;51.96
39405;BME280;25121;51.090;17.038;2023-03-05T02:10:22;99725.38;;;4.42;52.18
39405;BME280;25121;51.090;17.038;2023-03-05T02:11:46;99727.91;;;4.43;52.15
39405;BME280;25121;51.090;17.038;2023-03-05T02:13:10;99736.88;;;4.42;52.09
39405;BME280;25121;51.090;17.038;2023-03-05T02:14:34;99722.16;;;4.38;52.19
39405;BME280;25121;51.090;17.038;2023-03-05T02:15:58;99736.16;;;4.40;52.35
39405;BME280;25121;51.090;17.038;2023-03-05T02:17:21;99727.91;;;4.34;52.30
39405;BME280;25121;51.090;17.038;2023-03-05T02:18:43;99745.13;;;4.39;52.70
39405;BME280;25121;51.090;17.038;2023-03-05T02:20:09;99746.13;;;4.38;52.99
39405;BME280;25121;51.090;17.038;2023-03-05T02:21:38;99731.13;;;4.37;53.25
39405;BME280;25121;51.090;17.038;2023-03-05T02:23:01;99739.09;;;4.37;53.28
39405;BME280;25121;51.090;17.038;2023-03-05T02:24:34;99740.09;;;4.36;53.74
39405;BME280;25121;51.090;17.038;2023-03-05T02:25:56;99726.09;;;4.34;53.94
39405;BME280;25121;51.090;17.038;2023-03-05T02:27:20;99724.25;;;4.35;54.13
39405;BME280;25121;51.090;17.038;2023-03-05T02:28:46;99722.59;;;4.34;54.33
39405;BME280;25121;51.090;17.038;2023-03-05T02:30:11;99718.13;;;4.24;54.71
39405;BME280;25121;51.090;17.038;2023-03-05T02:31:37;99735.91;;;4.34;54.77
39405;BME280;25121;51.090;17.038;2023-03-05T02:32:58;99727.38;;;4.30;54.94
39405;BME280;25121;51.090;17.038;2023-03-05T02:34:22;99724.44;;;4.33;55.14
39405;BME280;25121;51.090;17.038;2023-03-05T02:35:44;99721.91;;;4.31;55.30
39405;BME280;25121;51.090;17.038;2023-03-05T02:37:08;99719.25;;;4.31;55.84
39405;BME280;25121;51.090;17.038;2023-03-05T02:38:31;99722.91;;;4.30;55.42
39405;BME280;25121;51.090;17.038;2023-03-05T02:39:54;99711.84;;;4.25;55.29
39405;BME280;25121;51.090;17.038;2023-03-05T02:41:16;99717.00;;;4.27;55.50
39405;BME280;25121;51.090;17.038;2023-03-05T02:42:39;99719.53;;;4.28;55.93
39405;BME280;25121;51.090;17.038;2023-03-05T02:44:03;99712.81;;;4.24;55.88
39405;BME280;25121;51.090;17.038;2023-03-05T02:45:24;99721.50;;;4.26;55.79
39405;BME280;25121;51.090;17.038;2023-03-05T02:46:45;99720.09;;;4.22;55.61
39405;BME280;25121;51.090;17.038;2023-03-05T02:48:08;99722.75;;;4.22;55.90
39405;BME280;25121;51.090;17.038;2023-03-05T02:49:30;99713.41;;;4.18;55.85
39405;BME280;25121;51.090;17.038;2023-03-05T02:50:52;99716.06;;;4.18;56.04
39405;BME280;25121;51.090;17.038;2023-03-05T02:52:15;99714.53;;;4.16;55.85
39405;BME280;25121;51.090;17.038;2023-03-05T02:53:37;99713.00;;;4.13;55.66
39405;BME280;25121;51.090;17.038;2023-03-05T02:54:59;99705.31;;;4.10;55.88
39405;BME280;25121;51.090;17.038;2023-03-05T02:56:23;99673.56;;;3.89;56.04
39405;BME280;25121;51.090;17.038;2023-03-05T02:57:46;99707.41;;;4.06;55.83
39405;BME280;25121;51.090;17.038;2023-03-05T02:59:08;99710.63;;;4.00;55.79
39405;BME280;25121;51.090;17.038;2023-03-05T03:00:30;99709.78;;;4.00;55.82
39405;BME280;25121;51.090;17.038;2023-03-05T03:01:52;99711.91;;;3.96;55.87
39405;BME280;25121;51.090;17.038;2023-03-05T03:03:14;99714.00;;;3.93;56.31
39405;BME280;25121;51.090;17.038;2023-03-05T03:04:35;99709.13;;;3.88;56.26
39405;BME280;25121;51.090;17.038;2023-03-05T03:05:58;99708.53;;;3.84;56.66
39405;BME280;25121;51.090;17.038;2023-03-05T03:07:21;99708.41;;;3.86;56.74
39405;BME280;25121;51.090;17.038;2023-03-05T03:08:43;99710.50;;;3.82;56.78
39405;BME280;25121;51.090;17.038;2023-03-05T03:10:06;99708.84;;;3.81;56.87
39405;BME280;25121;51.090;17.038;2023-03-05T03:11:28;99705.34;;;3.81;56.85
39405;BME280;25121;51.090;17.038;2023-03-05T03:12:50;99697.91;;;3.75;57.06
39405;BME280;25121;51.090;17.038;2023-03-05T03:14:12;99693.31;;;3.77;57.27
39405;BME280;25121;51.090;17.038;2023-03-05T03:15:34;99691.94;;;3.73;57.48
39405;BME280;25121;51.090;17.038;2023-03-05T03:16:57;99685.75;;;3.72;57.43
39405;BME280;25121;51.090;17.038;2023-03-05T03:18:20;99676.41;;;3.68;57.43
39405;BME280;25121;51.090;17.038;2023-03-05T03:19:44;99679.91;;;3.69;57.43
39405;BME280;25121;51.090;17.038;2023-03-05T03:21:05;99682.84;;;3.65;57.66
39405;BME280;25121;51.090;17.038;2023-03-05T03:22:29;99676.81;;;3.63;57.49
39405;BME280;25121;51.090;17.038;2023-03-05T03:23:51;99677.53;;;3.65;57.72
39405;BME280;25121;51.090;17.038;2023-03-05T03:25:14;99679.47;;;3.63;57.89
39405;BME280;25121;51.090;17.038;2023-03-05T03:26:38;99675.13;;;3.62;57.82
39405;BME280;25121;51.090;17.038;2023-03-05T03:28:00;99667.59;;;3.58;57.68
39405;BME280;25121;51.090;17.038;2023-03-05T03:29:25;99667.84;;;3.55;57.73
39405;BME280;25121;51.090;17.038;2023-03-05T03:30:47;99675.56;;;3.58;58.17
39405;BME280;25121;51.090;17.038;2023-03-05T03:32:08;99671.22;;;3.57;57.95
39405;BME280;25121;51.090;17.038;2023-03-05T03:33:31;99672.22;;;3.56;58.08
39405;BME280;25121;51.090;17.038;2023-03-05T03:34:52;99660.19;;;3.52;57.94
39405;BME280;25121;51.090;17.038;2023-03-05T03:36:14;99657.66;;;3.50;58.07
39405;BME280;25121;51.090;17.038;2023-03-05T03:37:39;99664.38;;;3.54;58.25
39405;BME280;25121;51.090;17.038;2023-03-05T03:39:00;99656.81;;;3.50;58.11
39405;BME280;25121;51.090;17.038;2023-03-05T03:40:23;99646.59;;;3.45;58.06
39405;BME280;25121;51.090;17.038;2023-03-05T03:41:47;99656.69;;;3.51;58.05
39405;BME280;25121;51.090;17.038;2023-03-05T03:43:10;99647.88;;;3.51;57.95
39405;BME280;25121;51.090;17.038;2023-03-05T03:44:31;99650.53;;;3.51;57.95
39405;BME280;25121;51.090;17.038;2023-03-05T03:45:53;99640.03;;;3.49;57.87
39405;BME280;25121;51.090;17.038;2023-03-05T03:47:15;99648.00;;;3.49;57.92
39405;BME280;25121;51.090;17.038;2023-03-05T03:48:40;99626.22;;;3.36;58.07
39405;BME280;25121;51.090;17.038;2023-03-05T03:50:03;99640.19;;;3.48;57.80
39405;BME280;25121;51.090;17.038;2023-03-05T03:51:24;99641.47;;;3.43;57.92
39405;BME280;25121;51.090;17.038;2023-03-05T03:52:48;99637.09;;;3.42;57.99
39405;BME280;25121;51.090;17.038;2023-03-05T03:54:10;99633.78;;;3.40;57.94
39405;BME280;25121;51.090;17.038;2023-03-05T03:55:33;99636.97;;;3.44;58.14
39405;BME280;25121;51.090;17.038;2023-03-05T03:56:56;99620.50;;;3.40;58.09
39405;BME280;25121;51.090;17.038;2023-03-05T03:58:18;99633.31;;;3.45;58.26
39405;BME280;25121;51.090;17.038;2023-03-05T03:59:39;99626.22;;;3.45;58.30
39405;BME280;25121;51.090;17.038;2023-03-05T04:01:02;99624.53;;;3.44;58.18
39405;BME280;25121;51.090;17.038;2023-03-05T04:02:24;99625.50;;;3.43;58.16
39405;BME280;25121;51.090;17.038;2023-03-05T04:03:46;99622.84;;;3.43;58.32
39405;BME280;25121;51.090;17.038;2023-03-05T04:05:09;99607.22;;;3.40;58.22
39405;BME280;25121;51.090;17.038;2023-03-05T04:06:32;99613.19;;;3.42;58.09
39405;BME280;25121;51.090;17.038;2023-03-05T04:07:56;99611.13;;;3.46;58.38
39405;BME280;25121;51.090;17.038;2023-03-05T04:09:18;99622.28;;;3.50;58.03
39405;BME280;25121;51.090;17.038;2023-03-05T04:10:40;99612.78;;;3.47;58.07
39405;BME280;25121;51.090;17.038;2023-03-05T04:12:01;99615.16;;;3.50;57.99
39405;BME280;25121;51.090;17.038;2023-03-05T04:13:24;99616.97;;;3.50;57.88
39405;BME280;25121;51.090;17.038;2023-03-05T04:14:46;99612.66;;;3.49;58.02
39405;BME280;25121;51.090;17.038;2023-03-05T04:16:08;99604.25;;;3.43;57.84
39405;BME280;25121;51.090;17.038;2023-03-05T04:17:30;99599.25;;;3.40;57.83
39405;BME280;25121;51.090;17.038;2023-03-05T04:18:53;99610.00;;;3.49;57.75
39405;BME280;25121;51.090;17.038;2023-03-05T04:20:16;99603.69;;;3.50;57.48
39405;BME280;25121;51.090;17.038;2023-03-05T04:21:38;99602.03;;;3.49;57.45
39405;BME280;25121;51.090;17.038;2023-03-05T04:23:02;99593.63;;;3.43;57.35
39405;BME280;25121;51.090;17.038;2023-03-05T04:24:25;99596.72;;;3.49;57.47
39405;BME280;25121;51.090;17.038;2023-03-05T04:25:47;99593.34;;;3.47;57.62
39405;BME280;25121;51.090;17.038;2023-03-05T04:27:10;99592.34;;;3.48;57.52
39405;BME280;25121;51.090;17.038;2023-03-05T04:28:33;99598.53;;;3.48;57.50
39405;BME280;25121;51.090;17.038;2023-03-05T04:29:54;99592.66;;;3.44;57.77
39405;BME280;25121;51.090;17.038;2023-03-05T04:31:16;99586.63;;;3.42;57.76
39405;BME280;25121;51.090;17.038;2023-03-05T04:32:40;99585.38;;;3.47;58.05
39405;BME280;25121;51.090;17.038;2023-03-05T04:34:02;99590.69;;;3.47;58.21
39405;BME280;25121;51.090;17.038;2023-03-05T04:35:24;99570.69;;;3.42;58.19
39405;BME280;25121;51.090;17.038;2023-03-05T04:36:47;99575.75;;;3.45;58.24
39405;BME280;25121;51.090;17.038;2023-03-05T04:38:12;99573.09;;;3.45;58.10
39405;BME280;25121;51.090;17.038;2023-03-05T04:39:34;99577.41;;;3.47;58.38
39405;BME280;25121;51.090;17.038;2023-03-05T04:40:56;99580.06;;;3.47;58.43
39405;BME280;25121;51.090;17.038;2023-03-05T04:42:18;99576.59;;;3.46;58.15
39405;BME280;25121;51.090;17.038;2023-03-05T04:43:41;99573.94;;;3.46;58.21
39405;BME280;25121;51.090;17.038;2023-03-05T04:45:04;99571.09;;;3.48;57.98
39405;BME280;25121;51.090;17.038;2023-03-05T04:46:27;99569.44;;;3.47;57.93
39405;BME280;25121;51.090;17.038;2023-03-05T04:47:48;99570.28;;;3.47;58.14
39405;BME280;25121;51.090;17.038;2023-03-05T04:49:11;99568.31;;;3.49;58.19
39405;BME280;25121;51.090;17.038;2023-03-05T04:50:32;99569.31;;;3.48;58.57
39405;BME280;25121;51.090;17.038;2023-03-05T04:51:54;99562.16;;;3.49;58.56
39405;BME280;25121;51.090;17.038;2023-03-05T04:53:19;99564.81;;;3.49;58.36
39405;BME280;25121;51.090;17.038;2023-03-05T04:54:43;99559.94;;;3.44;58.91
39405;BME280;25121;51.090;17.038;2023-03-05T04:56:06;99548.91;;;3.39;58.72
39405;BME280;25121;51.090;17.038;2023-03-05T04:57:28;99562.16;;;3.49;58.97
39405;BME280;25121;51.090;17.038;2023-03-05T04:58:49;99558.69;;;3.48;58.78
39405;BME280;25121;51.090;17.038;2023-03-05T05:00:14;99551.97;;;3.44;58.81
39405;BME280;25121;51.090;17.038;2023-03-05T05:01:36;99551.13;;;3.43;59.00
39405;BME280;25121;51.090;17.038;2023-03-05T05:02:58;99556.16;;;3.47;59.11
39405;BME280;25121;51.090;17.038;2023-03-05T05:04:21;99550.97;;;3.45;59.18
39405;BME280;25121;51.090;17.038;2023-03-05T05:05:42;99554.50;;;3.45;59.48
39405;BME280;25121;51.090;17.038;2023-03-05T05:07:04;99551.13;;;3.43;59.32
39405;BME280;25121;51.090;17.038;2023-03-05T05:08:28;99551.13;;;3.43;59.29
39405;BME280;25121;51.090;17.038;2023-03-05T05:09:50;99549.44;;;3.42;59.38
39405;BME280;25121;51.090;17.038;2023-03-05T05:11:13;99542.19;;;3.35;59.36
39405;BME280;25121;51.090;17.038;2023-03-05T05:12:35;99544.72;;;3.36;59.50
39405;BME280;25121;51.090;17.038;2023-03-05T05:13:57;99547.22;;;3.38;59.48
39405;BME280;25121;51.090;17.038;2023-03-05T05:15:22;99541.50;;;3.33;59.72
39405;BME280;25121;51.090;17.038;2023-03-05T05:16:44;99548.34;;;3.35;60.01
39405;BME280;25121;51.090;17.038;2023-03-05T05:18:07;99550.56;;;3.40;59.72
39405;BME280;25121;51.090;17.038;2023-03-05T05:19:28;99554.91;;;3.41;59.95
39405;BME280;25121;51.090;17.038;2023-03-05T05:20:50;99556.75;;;3.40;59.55
39405;BME280;25121;51.090;17.038;2023-03-05T05:22:12;99541.22;;;3.36;59.76
39405;BME280;25121;51.090;17.038;2023-03-05T05:23:37;99555.75;;;3.41;59.66
39405;BME280;25121;51.090;17.038;2023-03-05T05:24:59;99542.91;;;3.37;59.77
39405;BME280;25121;51.090;17.038;2023-03-05T05:26:20;99550.44;;;3.41;59.70
39405;BME280;25121;51.090;17.038;2023-03-05T05:27:42;99545.41;;;3.38;59.92
39405;BME280;25121;51.090;17.038;2023-03-05T05:29:05;99547.91;;;3.40;59.95
39405;BME280;25121;51.090;17.038;2023-03-05T05:30:27;99547.78;;;3.41;59.95
39405;BME280;25121;51.090;17.038;2023-03-05T05:31:49;99550.44;;;3.41;60.18
39405;BME280;25121;51.090;17.038;2023-03-05T05:33:13;99546.78;;;3.42;59.98
39405;BME280;25121;51.090;17.038;2023-03-05T05:34:34;99541.78;;;3.39;60.13
39405;BME280;25121;51.090;17.038;2023-03-05T05:35:56;99544.00;;;3.44;60.12
39405;BME280;25121;51.090;17.038;2023-03-05T05:37:18;99535.75;;;3.37;60.06
39405;BME280;25121;51.090;17.038;2023-03-05T05:38:42;99536.31;;;3.41;60.26
39405;BME280;25121;51.090;17.038;2023-03-05T05:40:06;99547.50;;;3.44;60.24
39405;BME280;25121;51.090;17.038;2023-03-05T05:41:28;99539.69;;;3.43;60.16
39405;BME280;25121;51.090;17.038;2023-03-05T05:42:50;99544.00;;;3.44;60.74
39405;BME280;25121;51.090;17.038;2023-03-05T05:44:11;99540.50;;;3.43;60.51
39405;BME280;25121;51.090;17.038;2023-03-05T05:45:36;99520.66;;;3.38;60.40
39405;BME280;25121;51.090;17.038;2023-03-05T05:46:58;99539.22;;;3.48;60.56
39405;BME280;25121;51.090;17.038;2023-03-05T05:48:20;99535.59;;;3.49;60.52
39405;BME280;25121;51.090;17.038;2023-03-05T05:49:42;99537.44;;;3.48;60.40
39405;BME280;25121;51.090;17.038;2023-03-05T05:51:06;99538.41;;;3.47;60.76
39405;BME280;25121;51.090;17.038;2023-03-05T05:52:29;99533.78;;;3.49;61.03
39405;BME280;25121;51.090;17.038;2023-03-05T05:53:52;99526.94;;;3.47;61.30
39405;BME280;25121;51.090;17.038;2023-03-05T05:55:14;99536.97;;;3.53;61.25
39405;BME280;25121;51.090;17.038;2023-03-05T05:56:36;99536.00;;;3.54;61.39
39405;BME280;25121;51.090;17.038;2023-03-05T05:57:57;99540.50;;;3.53;61.10
39405;BME280;25121;51.090;17.038;2023-03-05T05:59:20;99531.53;;;3.54;61.29
39405;BME280;25121;51.090;17.038;2023-03-05T06:00:41;99533.22;;;3.55;61.31
39405;BME280;25121;51.090;17.038;2023-03-05T06:02:04;99531.41;;;3.56;61.56
39405;BME280;25121;51.090;17.038;2023-03-05T06:03:27;99541.88;;;3.57;61.43
39405;BME280;25121;51.090;17.038;2023-03-05T06:04:50;99538.53;;;3.55;61.64
39405;BME280;25121;51.090;17.038;2023-03-05T06:06:13;99532.09;;;3.58;61.64
39405;BME280;25121;51.090;17.038;2023-03-05T06:07:36;99528.19;;;3.52;61.68
39405;BME280;25121;51.090;17.038;2023-03-05T06:09:00;99536.41;;;3.59;61.64
39405;BME280;25121;51.090;17.038;2023-03-05T06:10:22;99493.00;;;3.40;61.80
39405;BME280;25121;51.090;17.038;2023-03-05T06:11:48;99524.25;;;3.56;61.87
39405;BME280;25121;51.090;17.038;2023-03-05T06:13:11;99536.81;;;3.64;62.08
39405;BME280;25121;51.090;17.038;2023-03-05T06:14:40;99527.03;;;3.64;62.24
39405;BME280;25121;51.090;17.038;2023-03-05T06:16:04;99518.66;;;3.59;62.33
39405;BME280;25121;51.090;17.038;2023-03-05T06:17:27;99527.31;;;3.61;62.67
39405;BME280;25121;51.090;17.038;2023-03-05T06:18:51;99527.44;;;3.60;62.89
39405;BME280;25121;51.090;17.038;2023-03-05T06:20:13;99528.84;;;3.64;62.93
39405;BME280;25121;51.090;17.038;2023-03-05T06:21:35;99520.47;;;3.59;63.31
39405;BME280;25121;51.090;17.038;2023-03-05T06:23:00;99513.06;;;3.53;63.50
39405;BME280;25121;51.090;17.038;2023-03-05T06:24:23;99522.13;;;3.60;63.61
39405;BME280;25121;51.090;17.038;2023-03-05T06:25:46;99523.13;;;3.59;63.79
39405;BME280;25121;51.090;17.038;2023-03-05T06:27:07;99512.81;;;3.56;64.10
39405;BME280;25121;51.090;17.038;2023-03-05T06:28:31;99530.41;;;3.57;64.47
39405;BME280;25121;51.090;17.038;2023-03-05T06:29:52;99517.53;;;3.52;64.63
39405;BME280;25121;51.090;17.038;2023-03-05T06:31:17;99505.25;;;3.51;64.75
39405;BME280;25121;51.090;17.038;2023-03-05T06:32:41;99505.56;;;3.48;65.03
39405;BME280;25121;51.090;17.038;2023-03-05T06:34:03;99514.19;;;3.50;64.78
39405;BME280;25121;51.090;17.038;2023-03-05T06:35:25;99515.88;;;3.51;64.73
39405;BME280;25121;51.090;17.038;2023-03-05T06:36:47;99510.56;;;3.51;65.03
39405;BME280;25121;51.090;17.038;2023-03-05T06:38:09;99508.03;;;3.50;65.12
39405;BME280;25121;51.090;17.038;2023-03-05T06:39:32;99512.00;;;3.45;65.16
39405;BME280;25121;51.090;17.038;2023-03-05T06:40:58;99506.94;;;3.42;64.89
39405;BME280;25121;51.090;17.038;2023-03-05T06:42:21;99510.59;;;3.41;65.12
39405;BME280;25121;51.090;17.038;2023-03-05T06:43:45;99513.13;;;3.43;65.40
39405;BME280;25121;51.090;17.038;2023-03-05T06:45:08;99522.88;;;3.42;65.58
39405;BME280;25121;51.090;17.038;2023-03-05T06:46:31;99523.03;;;3.41;65.61
39405;BME280;25121;51.090;17.038;2023-03-05T06:47:54;99524.88;;;3.40;65.60
39405;BME280;25121;51.090;17.038;2023-03-05T06:49:18;99518.69;;;3.40;65.69
39405;BME280;25121;51.090;17.038;2023-03-05T06:50:40;99517.88;;;3.39;66.14
39405;BME280;25121;51.090;17.038;2023-03-05T06:52:02;99514.25;;;3.40;66.02
39405;BME280;25121;51.090;17.038;2023-03-05T06:53:25;99512.13;;;3.44;66.01
39405;BME280;25121;51.090;17.038;2023-03-05T06:54:49;99518.84;;;3.48;65.99
39405;BME280;25121;51.090;17.038;2023-03-05T06:56:13;99519.38;;;3.52;66.15
39405;BME280;25121;51.090;17.038;2023-03-05T06:57:36;99519.25;;;3.53;66.34
39405;BME280;25121;51.090;17.038;2023-03-05T06:58:58;99498.16;;;3.42;65.94
39405;BME280;25121;51.090;17.038;2023-03-05T07:00:23;99514.47;;;3.57;65.99
39405;BME280;25121;51.090;17.038;2023-03-05T07:01:49;99506.50;;;3.57;66.14
39405;BME280;25121;51.090;17.038;2023-03-05T07:03:11;99518.91;;;3.66;66.32
39405;BME280;25121;51.090;17.038;2023-03-05T07:04:34;99515.25;;;3.67;66.11
39405;BME280;25121;51.090;17.038;2023-03-05T07:05:56;99510.66;;;3.69;66.36
39405;BME280;25121;51.090;17.038;2023-03-05T07:07:18;99514.28;;;3.78;66.39
39405;BME280;25121;51.090;17.038;2023-03-05T07:08:41;99515.50;;;3.83;66.19
39405;BME280;25121;51.090;17.038;2023-03-05T07:10:07;99516.72;;;3.89;66.05
39405;BME280;25121;51.090;17.038;2023-03-05T07:11:30;99509.59;;;3.89;66.24
39405;BME280;25121;51.090;17.038;2023-03-05T07:12:52;99515.03;;;3.98;66.29
39405;BME280;25121;51.090;17.038;2023-03-05T07:14:14;99516.09;;;4.05;66.32
39405;BME280;25121;51.090;17.038;2023-03-05T07:15:37;99508.66;;;4.08;66.56
39405;BME280;25121;51.090;17.038;2023-03-05T07:16:58;99512.03;;;4.10;66.52
39405;BME280;25121;51.090;17.038;2023-03-05T07:18:21;99511.41;;;4.17;66.31